Thunder radar more information blitzortung!


Löydät sääaseman tiedot myös:

European Weather Network

Finland Weather Exchange

Weather Underground

AWEKAS



Weather Underground säähistoriasivu

Päivittäin yhteenveto Lokakuu 16, 2017 Yksiköt:  Englantilaiset    Metriset   Molemmat
« Edellinen Päivä
Seuraava Päivä »
Päivittäin Viikoittain Kuukausittain Vuosittain Mukautettu
  Korkea: Matala: Keskiarvo:
Lämpötila: TemperatureC °F 6.4 °F 8.8 °F
Kastepiste: DewpointC °F 3.8 °F 7 °F
Kosteus: Humidity % 76 % 88 %
Tuulen nopeus: WindSpeedKMH mph 0.0 mph 0 mph
Tuulenpuuska: WindSpeedGustKMH mph - -
Tuuli:- - North
Ilmanpaine: PressurehPa in 996.8 in -
Sade: 0.0 in    
Historical Graphs
 
 
Taulukkotiedot Lokakuu 16, 2017
Aika Lämpötila Kastepiste Ilmanpaine Tuuli Tuulen nopeus Tuulenpuuska Kosteus Sademäärä (tunneittain)
TemperatureC °F DewpointC °F PressurehPa in Calm     Humidity % HourlyPrecipMM in
00:00 6.4 °F 5.6 °F 1009.4 in Calm     95 % 0.0 in
00:15 6.4 °F 5.7 °F 1009.4 in Calm     95 % 0.0 in
00:30 6.6 °F 5.8 °F 1009.0 in Calm     95 % 0.0 in
00:45 6.7 °F 5.8 °F 1008.7 in Calm     94 % 0.0 in
01:00 6.7 °F 5.8 °F 1008.4 in Calm     94 % 0.0 in
01:15 6.9 °F 5.8 °F 1008.4 in Calm     93 % 0.0 in
01:30 7.2 °F 6.0 °F 1008.0 in Calm     92 % 0.0 in
01:45 7.1 °F 6.0 °F 1007.7 in Calm     93 % 0.0 in
02:00 7.1 °F 6.0 °F 1007.3 in Calm     93 % 0.0 in
02:15 7.2 °F 6.3 °F 1007.3 in Calm     94 % 0.0 in
02:30 7.4 °F 6.5 °F 1006.7 in Calm     94 % 0.0 in
02:45 7.4 °F 6.7 °F 1006.3 in Calm     95 % 0.0 in
03:00 7.4 °F 6.7 °F 1006.0 in Calm     95 % 0.0 in
03:15 7.4 °F 6.7 °F 1005.6 in Calm     95 % 0.0 in
03:30 7.4 °F 6.8 °F 1005.3 in Calm     96 % 0.0 in
03:45 7.3 °F 6.7 °F 1005.0 in Calm     96 % 0.0 in
04:00 7.3 °F 6.7 °F 1004.3 in Calm     96 % 0.0 in
04:15 7.4 °F 6.9 °F 1003.9 in Calm     97 % 0.0 in
04:30 7.4 °F 6.9 °F 1003.6 in Calm     97 % 0.0 in
04:45 7.4 °F 7.0 °F 1002.9 in Calm     97 % 0.0 in
05:00 7.4 °F 7.0 °F 1002.6 in Calm     97 % 0.0 in
05:15 7.5 °F 7.1 °F 1002.3 in Calm     97 % 0.0 in
05:30 7.6 °F 7.1 °F 1001.9 in Calm     97 % 0.0 in
05:45 7.6 °F 7.2 °F 1001.6 in Calm     97 % 0.0 in
06:00 7.7 °F 7.3 °F 1001.2 in Calm     97 % 0.0 in
06:15 7.8 °F 7.4 °F 1000.6 in Calm     97 % 0.0 in
06:30 8.0 °F 7.6 °F 1000.6 in Calm     97 % 0.0 in
06:45 8.2 °F 7.9 °F 1000.2 in Calm     98 % 0.0 in
07:00 8.3 °F 8.0 °F 999.5 in Calm     98 % 0.0 in
07:15 8.5 °F 8.2 °F 999.2 in Calm     98 % 0.0 in
07:30 8.7 °F 8.4 °F 999.2 in Calm     98 % 0.0 in
07:45 8.8 °F 8.5 °F 998.9 in Calm     98 % 0.0 in
08:00 8.9 °F 8.6 °F 998.5 in Calm     98 % 0.0 in
08:15 9.1 °F 8.8 °F 998.2 in Calm     98 % 0.0 in
08:30 9.2 °F 8.9 °F 997.9 in Calm     98 % 0.0 in
08:45 9.3 °F 9.0 °F 997.9 in Calm     98 % 0.0 in
09:00 9.3 °F 9.0 °F 997.5 in Calm     98 % 0.0 in
09:15 9.4 °F 9.1 °F 997.5 in Calm     98 % 0.0 in
09:30 9.5 °F 9.2 °F 997.2 in Calm     98 % 0.0 in
09:45 9.6 °F 9.3 °F 996.8 in Calm     98 % 0.0 in
10:00 9.7 °F 9.4 °F 996.8 in Calm     98 % 0.0 in
10:15 10.6 °F 10.3 °F 996.8 in Calm     98 % 0.0 in
10:30 11.2 °F 11.0 °F 996.8 in Calm     99 % 0.0 in
10:45 11.3 °F 11.2 °F 996.8 in Calm     99 % 0.0 in
11:00 11.4 °F 11.3 °F 996.8 in Calm     99 % 0.0 in
11:15 11.6 °F 11.3 °F 996.8 in Calm     98 % 0.0 in
11:30 11.7 °F 11.4 °F 996.8 in Calm     98 % 0.0 in
11:45 11.8 °F 11.5 °F 996.8 in Calm     98 % 0.0 in
12:00 11.9 °F 11.4 °F 996.8 in Calm     97 % 0.0 in
12:15 11.9 °F 11.3 °F 997.2 in Calm     96 % 0.0 in
12:30 11.9 °F 11.2 °F 997.5 in Calm     95 % 0.0 in
12:45 12.1 °F 11.0 °F 997.9 in Calm     93 % 0.0 in
13:00 12.1 °F 10.8 °F 997.9 in Calm     92 % 0.0 in
13:15 12.0 °F 10.4 °F 998.2 in Calm     90 % 0.0 in
13:30 11.9 °F 10.0 °F 998.5 in Calm     88 % 0.0 in
13:45 12.0 °F 9.7 °F 998.9 in Calm     86 % 0.0 in
14:00 12.0 °F 9.6 °F 999.2 in Calm     85 % 0.0 in
14:15 11.8 °F 8.8 °F 999.5 in Calm     82 % 0.0 in
14:30 11.6 °F 8.2 °F 999.9 in Calm     80 % 0.0 in
14:45 11.3 °F 7.8 °F 1000.6 in Calm     79 % 0.0 in
15:00 11.2 °F 7.8 °F 1000.9 in Calm     80 % 0.0 in
15:15 10.9 °F 7.6 °F 1001.2 in Calm     80 % 0.0 in
15:30 10.7 °F 7.2 °F 1001.2 in Calm     79 % 0.0 in
15:45 10.5 °F 7.0 °F 1001.6 in Calm     79 % 0.0 in
16:00 10.2 °F 6.6 °F 1001.6 in Calm     78 % 0.0 in
16:15 10.2 °F 6.3 °F 1001.9 in Calm     77 % 0.0 in
16:30 10.1 °F 6.4 °F 1002.3 in Calm     78 % 0.0 in
16:45 9.9 °F 6.2 °F 1002.6 in Calm     78 % 0.0 in
17:00 9.7 °F 5.9 °F 1002.6 in Calm     77 % 0.0 in
17:15 9.5 °F 5.9 °F 1002.9 in Calm     78 % 0.0 in
17:30 9.3 °F 5.3 °F 1002.9 in Calm     76 % 0.0 in
17:45 9.2 °F 5.2 °F 1003.3 in Calm     76 % 0.0 in
18:00 8.9 °F 5.1 °F 1003.3 in Calm     77 % 0.0 in
18:15 8.7 °F 4.9 °F 1003.6 in Calm     77 % 0.0 in
18:30 8.6 °F 4.6 °F 1003.6 in Calm     76 % 0.0 in
18:45 8.4 °F 4.5 °F 1003.9 in Calm     76 % 0.0 in
19:00 8.3 °F 4.5 °F 1004.3 in Calm     77 % 0.0 in
19:15 8.2 °F 4.6 °F 1004.3 in Calm     78 % 0.0 in
19:30 8.1 °F 4.4 °F 1004.6 in Calm     78 % 0.0 in
19:45 7.9 °F 4.3 °F 1005.0 in Calm     78 % 0.0 in
20:00 7.7 °F 4.3 °F 1005.0 in Calm     79 % 0.0 in
20:15 7.7 °F 4.3 °F 1005.0 in Calm     79 % 0.0 in
20:30 7.5 °F 4.1 °F 1005.0 in Calm     79 % 0.0 in
20:45 7.4 °F 4.2 °F 1005.3 in Calm     80 % 0.0 in
21:00 7.6 °F 4.1 °F 1005.3 in Calm     79 % 0.0 in
21:15 7.5 °F 4.1 °F 1005.3 in Calm     79 % 0.0 in
21:30 7.3 °F 3.9 °F 1005.3 in Calm     79 % 0.0 in
21:45 7.5 °F 3.9 °F 1005.6 in Calm     78 % 0.0 in
22:00 7.5 °F 3.9 °F 1005.6 in Calm     78 % 0.0 in
22:15 7.7 °F 3.9 °F 1005.6 in Calm     77 % 0.0 in
22:30 7.6 °F 3.8 °F 1006.0 in Calm     77 % 0.0 in
22:45 7.4 °F 3.9 °F 1006.3 in Calm     78 % 0.0 in
23:00 7.3 °F 4.1 °F 1006.0 in Calm     80 % 0.0 in
23:15 7.1 °F 3.9 °F 1006.3 in Calm     80 % 0.0 in
23:30 7.1 °F 3.8 °F 1006.3 in Calm     80 % 0.0 in
23:45 7.1 °F 3.8 °F 1006.3 in Calm     80 % 0.0 in
Esan sääasema
Terveisin Weather Underground - 2.75 mb

Alkuperäinen skripti  Jim McMurry - jmcmurry@mwt.net Sovitettu myös templatelle  Wim van der Kuil - Leuven-Template.eu

Laitteet joita käytämme:

Sääasema
Davis VP2

Sääasemaohjelma
Cumulus

Sääaseman tietokone
Asus EeePC

Palveluntarjoaja
Suncomet

Davis VP2

Cumulus

Asus EeePC

Suncomet